Time;durP1;ratioP1;P1;durP2;ratioP2;P2;SDS_P1;SDS_P2;PMS_P1;PMS_P2;Temp;Humidity;BMP_temperature;BMP_pressure;BME280_temperature;BME280_humidity;BME280_pressure;Samples;Min_cycle;Max_cycle;Signal;HPM_P1;HPM_P2
2023/05/23 00:04:35;;;;;;;17.10;6.68;;;14.80;1.00;;;;;;20828866;28;20033;-83
2023/05/23 00:14:39;;;;;;;12.63;5.38;;;14.80;1.00;;;;;;20821530;28;20196;-82
2023/05/23 00:24:40;;;;;;;18.88;6.18;;;14.80;1.00;;;;;;20811430;28;20053;-84
2023/05/23 00:34:41;;;;;;;12.63;5.18;;;14.70;1.00;;;;;;20761323;28;20035;-84
2023/05/23 00:44:42;;;;;;;9.52;4.07;;;14.60;1.00;;;;;;20760953;28;20045;-84
2023/05/23 00:54:43;;;;;;;10.20;4.35;;;14.60;1.00;;;;;;20759150;28;20033;-81
2023/05/23 01:04:44;;;;;;;5.78;3.17;;;14.40;1.00;;;;;;20765124;28;20049;-84
2023/05/23 01:14:54;;;;;;;6.03;2.47;;;14.30;1.00;;;;;;20759784;28;20065;-83
2023/05/23 01:25:26;;;;;;;6.35;3.20;;;14.30;1.00;;;;;;20772267;28;20041;-81
2023/05/23 01:35:28;;;;;;;9.07;3.30;;;14.20;1.00;;;;;;20817348;28;20045;-85
2023/05/23 01:45:30;;;;;;;8.40;3.10;;;14.20;1.00;;;;;;20804272;28;20029;-79
2023/05/23 01:55:31;;;;;;;6.80;3.97;;;14.30;1.00;;;;;;20861572;28;20041;-84
2023/05/23 02:05:32;;;;;;;8.48;4.22;;;14.20;1.00;;;;;;20805731;28;20038;-85
2023/05/23 02:15:34;;;;;;;11.95;4.18;;;14.10;1.00;;;;;;20812455;28;20041;-86
2023/05/23 02:25:35;;;;;;;8.27;3.45;;;14.10;1.00;;;;;;20823300;28;20513;-84
2023/05/23 02:35:36;;;;;;;9.05;3.88;;;14.00;1.00;;;;;;20824856;28;20049;-85
2023/05/23 02:45:52;;;;;;;11.43;4.53;;;14.10;1.00;;;;;;20811064;28;20346;-82
2023/05/23 02:55:53;;;;;;;14.40;4.70;;;14.10;1.00;;;;;;20824876;28;20045;-83
2023/05/23 03:05:54;;;;;;;10.40;4.45;;;14.10;1.00;;;;;;20843381;28;20036;-86
2023/05/23 03:15:55;;;;;;;10.15;4.20;;;14.00;1.00;;;;;;20824265;28;20045;-85
2023/05/23 03:25:56;;;;;;;7.88;3.63;;;14.00;1.00;;;;;;20833095;28;20546;-86
2023/05/23 03:35:57;;;;;;;8.55;3.80;;;13.80;1.00;;;;;;20808846;28;20137;-83
2023/05/23 03:45:58;;;;;;;9.48;3.58;;;13.80;1.00;;;;;;20806352;28;20029;-83
2023/05/23 03:55:59;;;;;;;9.75;2.92;;;13.70;1.00;;;;;;20814496;28;20048;-81
2023/05/23 04:06:01;;;;;;;10.65;4.28;;;13.70;1.00;;;;;;20838234;28;20044;-81
2023/05/23 04:16:04;;;;;;;7.30;2.80;;;13.60;1.00;;;;;;20817478;28;20043;-79
2023/05/23 04:26:05;;;;;;;4.47;1.98;;;13.40;1.00;;;;;;20827150;28;20037;-79
2023/05/23 04:36:09;;;;;;;6.25;2.03;;;13.40;1.00;;;;;;20805899;28;20045;-80
2023/05/23 04:46:12;;;;;;;6.82;2.58;;;13.20;1.00;;;;;;20802029;28;20118;-77
2023/05/23 04:56:14;;;;;;;5.60;2.80;;;13.00;1.00;;;;;;20815644;28;20388;-79
2023/05/23 05:06:16;;;;;;;6.28;2.42;;;12.90;1.00;;;;;;20804458;28;20064;-78
2023/05/23 05:16:18;;;;;;;6.13;2.42;;;12.90;1.00;;;;;;20829999;28;20041;-80
2023/05/23 05:26:19;;;;;;;6.82;2.67;;;12.90;1.00;;;;;;20823179;28;20046;-78
2023/05/23 05:36:20;;;;;;;7.20;3.58;;;12.80;1.00;;;;;;20806170;28;20076;-80
2023/05/23 05:46:21;;;;;;;13.32;3.22;;;12.80;1.00;;;;;;20819731;28;20044;-78
2023/05/23 05:56:22;;;;;;;8.00;3.88;;;12.70;1.00;;;;;;20821621;28;20507;-80
2023/05/23 06:06:23;;;;;;;7.15;3.75;;;12.70;1.00;;;;;;20809013;28;20872;-77
2023/05/23 06:16:24;;;;;;;6.05;2.53;;;12.70;1.00;;;;;;20794238;28;20043;-79
2023/05/23 06:26:26;;;;;;;5.20;2.42;;;12.70;1.00;;;;;;20818208;28;20055;-79
2023/05/23 06:36:27;;;;;;;7.30;3.20;;;12.60;1.00;;;;;;20790722;28;20048;-81
2023/05/23 06:46:28;;;;;;;6.45;2.40;;;12.70;1.00;;;;;;20825481;28;20049;-81
2023/05/23 06:56:29;;;;;;;6.07;1.80;;;12.70;1.00;;;;;;20827513;28;20045;-82
2023/05/23 07:06:31;;;;;;;5.53;1.40;;;12.60;1.00;;;;;;20828230;28;20038;-78
2023/05/23 07:16:32;;;;;;;6.88;2.08;;;12.70;1.00;;;;;;20793685;28;20041;-79
2023/05/23 07:26:34;;;;;;;8.73;2.03;;;13.00;1.00;;;;;;20817211;28;21728;-80
2023/05/23 07:36:36;;;;;;;4.55;1.42;;;13.10;1.00;;;;;;20832246;28;20044;-78
2023/05/23 07:46:37;;;;;;;5.93;1.65;;;13.10;1.00;;;;;;20826350;28;20176;-78
2023/05/23 07:56:38;;;;;;;6.40;2.58;;;13.40;1.00;;;;;;20841740;28;20037;-77
2023/05/23 08:06:39;;;;;;;5.78;1.55;;;13.70;1.00;;;;;;20804199;28;20040;-79
2023/05/23 08:16:41;;;;;;;4.75;1.25;;;13.70;1.00;;;;;;20822558;28;20060;-80
2023/05/23 08:26:42;;;;;;;10.88;2.10;;;13.80;1.00;;;;;;20832863;28;20056;-78
2023/05/23 08:36:44;;;;;;;6.70;1.80;;;14.00;1.00;;;;;;20816186;28;20049;-78
2023/05/23 08:46:51;;;;;;;9.18;1.40;;;14.00;1.00;;;;;;20821565;28;20048;-77
2023/05/23 08:56:52;;;;;;;4.63;1.67;;;14.40;1.00;;;;;;20794018;28;20037;-79
2023/05/23 09:06:58;;;;;;;9.77;2.15;;;14.50;1.00;;;;;;20833567;28;20060;-80
2023/05/23 09:17:01;;;;;;;9.88;2.30;;;14.60;1.00;;;;;;20796611;28;20392;-79
2023/05/23 09:27:06;;;;;;;4.82;1.63;;;15.10;1.00;;;;;;20798608;28;20473;-80
2023/05/23 09:37:07;;;;;;;3.50;1.35;;;14.70;1.00;;;;;;20810883;28;20044;-80
2023/05/23 09:47:09;;;;;;;7.63;1.35;;;14.70;1.00;;;;;;20811469;28;20037;-79
2023/05/23 09:57:12;;;;;;;8.32;2.10;;;14.70;1.00;;;;;;20804721;28;20033;-80
2023/05/23 10:07:18;;;;;;;8.77;1.88;;;14.60;1.00;;;;;;20819082;28;20033;-79
2023/05/23 10:17:36;;;;;;;6.60;2.15;;;15.00;1.00;;;;;;20798309;28;20036;-79
2023/05/23 10:27:40;;;;;;;7.30;1.70;;;15.10;1.00;;;;;;20798491;28;20045;-79
2023/05/23 10:37:49;;;;;;;4.95;1.08;;;15.30;1.00;;;;;;20818230;28;20520;-80
2023/05/23 10:47:52;;;;;;;3.53;1.10;;;15.10;1.00;;;;;;20832802;28;20048;-80
2023/05/23 10:58:19;;;;;;;5.13;1.90;;;15.30;1.00;;;;;;20798353;28;20117;-79
2023/05/23 11:08:23;;;;;;;4.53;1.88;;;15.30;1.00;;;;;;20816889;28;20420;-80
2023/05/23 11:18:29;;;;;;;6.50;1.25;;;15.10;1.00;;;;;;20803455;28;20063;-79
2023/05/23 11:28:57;;;;;;;6.15;1.52;;;15.10;1.00;;;;;;20819017;28;20455;-79
2023/05/23 11:39:02;;;;;;;5.17;1.20;;;15.50;1.00;;;;;;20808805;28;20565;-80
2023/05/23 11:49:10;;;;;;;7.68;1.52;;;15.80;1.00;;;;;;20849494;28;20041;-79
2023/05/23 11:59:11;;;;;;;3.57;1.00;;;15.80;1.00;;;;;;20832373;28;20056;-79
2023/05/23 12:09:12;;;;;;;5.45;1.25;;;15.80;1.00;;;;;;20824686;28;20366;-79
2023/05/23 12:19:16;;;;;;;5.30;1.38;;;15.70;1.00;;;;;;20843313;28;20673;-79
2023/05/23 12:29:34;;;;;;;9.63;1.30;;;16.00;1.00;;;;;;20814878;28;20045;-78
2023/05/23 12:39:35;;;;;;;;;;;16.20;1.00;;;;;;20802909;28;20045;-79
2023/05/23 12:49:56;;;;;;;6.80;1.75;;;15.80;1.00;;;;;;20824237;28;20042;-78
2023/05/23 12:59:57;;;;;;;8.85;3.05;;;16.30;1.00;;;;;;20831471;28;20339;-78
2023/05/23 13:09:58;;;;;;;6.95;1.95;;;16.60;1.00;;;;;;20819470;28;20029;-79
2023/05/23 13:20:00;;;;;;;3.05;0.80;;;16.80;1.00;;;;;;20820133;28;20041;-79
2023/05/23 13:30:01;;;;;;;2.67;0.85;;;16.80;1.00;;;;;;20831170;28;20160;-79
2023/05/23 13:40:04;;;;;;;4.78;1.38;;;16.70;1.00;;;;;;20797949;28;20095;-78
2023/05/23 13:50:06;;;;;;;4.28;1.20;;;16.20;1.00;;;;;;20831862;28;21996;-78
2023/05/23 14:00:08;;;;;;;4.30;0.95;;;16.50;1.00;;;;;;20817372;28;20385;-79
2023/05/23 14:10:10;;;;;;;5.90;2.22;;;16.50;1.00;;;;;;20812010;28;20032;-79
2023/05/23 14:20:12;;;;;;;7.25;2.22;;;16.10;1.00;;;;;;20825323;28;20037;-78
2023/05/23 14:30:13;;;;;;;4.60;1.20;;;16.20;1.00;;;;;;20730612;28;20033;-78
2023/05/23 14:40:15;;;;;;;3.65;1.23;;;16.40;1.00;;;;;;20745743;28;20056;-79
2023/05/23 14:50:16;;;;;;;10.55;2.05;;;15.80;1.00;;;;;;20745606;28;20777;-79
2023/05/23 15:00:19;;;;;;;5.57;1.48;;;15.70;1.00;;;;;;20744614;28;20049;-78
2023/05/23 15:10:20;;;;;;;3.90;1.10;;;15.90;1.00;;;;;;20735897;28;20052;-78
2023/05/23 15:20:21;;;;;;;8.52;1.92;;;15.70;1.00;;;;;;20736385;28;20151;-79
2023/05/23 15:30:22;;;;;;;10.40;2.05;;;15.40;1.00;;;;;;20804236;28;20056;-78
2023/05/23 15:40:24;;;;;;;1.45;0.90;;;15.50;1.00;;;;;;20826379;28;20036;-78
2023/05/23 15:50:25;;;;;;;6.60;2.05;;;15.60;1.00;;;;;;20844273;28;20046;-80
2023/05/23 16:00:27;;;;;;;2.10;1.02;;;15.40;1.00;;;;;;20812242;28;20041;-79
2023/05/23 16:10:27;;;;;;;6.53;1.25;;;15.20;1.00;;;;;;20838195;28;20030;-79
2023/05/23 16:20:30;;;;;;;7.22;1.40;;;15.10;1.00;;;;;;20812991;28;20033;-79
2023/05/23 16:30:32;;;;;;;4.10;0.95;;;15.10;1.00;;;;;;20813005;28;20037;-79
2023/05/23 16:40:33;;;;;;;2.60;0.68;;;14.90;1.00;;;;;;20801171;28;20049;-79
2023/05/23 16:50:34;;;;;;;5.70;1.00;;;14.70;1.00;;;;;;20805458;28;20037;-80
2023/05/23 17:00:35;;;;;;;2.33;0.50;;;14.50;1.00;;;;;;20836090;28;20044;-81
2023/05/23 17:10:36;;;;;;;4.05;1.10;;;14.50;1.00;;;;;;20825763;28;20662;-79
2023/05/23 17:20:39;;;;;;;6.50;1.10;;;14.40;1.00;;;;;;20801318;28;20041;-78
2023/05/23 17:30:40;;;;;;;5.68;1.02;;;14.20;1.00;;;;;;20786714;28;20128;-79
2023/05/23 17:40:41;;;;;;;5.80;0.70;;;14.10;1.00;;;;;;20822152;28;20044;-78
2023/05/23 17:50:44;;;;;;;4.35;0.85;;;13.90;1.00;;;;;;20809088;28;20040;-77
2023/05/23 18:00:49;;;;;;;6.45;2.15;;;13.80;1.00;;;;;;20787162;28;20037;-78
2023/05/23 18:10:50;;;;;;;4.55;1.33;;;13.80;1.00;;;;;;20814267;28;20060;-79
2023/05/23 18:20:52;;;;;;;3.33;0.88;;;13.90;1.00;;;;;;20781650;28;20044;-76
2023/05/23 18:31:13;;;;;;;6.47;2.30;;;13.70;1.00;;;;;;20790519;28;20125;-78
2023/05/23 18:41:15;;;;;;;3.15;1.38;;;13.40;1.00;;;;;;20819442;28;20386;-79
2023/05/23 18:51:17;;;;;;;4.25;0.70;;;13.10;1.00;;;;;;20812801;28;20500;-79
2023/05/23 19:01:18;;;;;;;3.72;0.95;;;13.00;1.00;;;;;;20790576;28;20048;-79
2023/05/23 19:11:19;;;;;;;2.75;0.70;;;12.80;1.00;;;;;;20811233;28;20045;-79
2023/05/23 19:21:20;;;;;;;5.18;1.52;;;12.60;1.00;;;;;;20816884;28;20438;-82
2023/05/23 19:31:21;;;;;;;3.83;1.67;;;12.50;1.00;;;;;;20803009;28;20624;-81
2023/05/23 19:41:22;;;;;;;4.78;1.95;;;12.30;1.00;;;;;;20832427;28;20041;-80
2023/05/23 19:51:24;;;;;;;7.93;1.65;;;12.10;1.00;;;;;;20810605;28;20040;-78
2023/05/23 20:01:26;;;;;;;6.40;1.35;;;12.00;1.00;;;;;;20808278;28;20037;-81
2023/05/23 20:11:27;;;;;;;2.67;1.10;;;12.00;1.00;;;;;;20805849;28;20051;-84
2023/05/23 20:21:29;;;;;;;11.10;2.38;;;11.80;1.00;;;;;;20814928;28;20055;-79
2023/05/23 20:31:30;;;;;;;8.07;1.33;;;11.60;1.00;;;;;;20818530;28;20047;-82
2023/05/23 20:41:32;;;;;;;5.97;1.58;;;11.50;1.00;;;;;;20817176;28;20675;-81
2023/05/23 20:51:34;;;;;;;7.78;2.33;;;11.40;1.00;;;;;;20817256;28;20565;-79
2023/05/23 21:01:35;;;;;;;4.82;1.42;;;11.30;1.00;;;;;;20840748;28;20029;-83
2023/05/23 21:11:36;;;;;;;9.48;1.33;;;11.10;1.00;;;;;;20815435;28;20026;-81
2023/05/23 21:21:37;;;;;;;6.22;2.03;;;10.90;1.00;;;;;;20826482;28;20041;-78
2023/05/23 21:31:38;;;;;;;2.67;1.10;;;10.80;1.00;;;;;;20794731;28;20489;-85
2023/05/23 21:41:39;;;;;;;10.80;2.03;;;10.70;1.00;;;;;;20810356;28;20053;-80
2023/05/23 21:51:41;;;;;;;7.97;1.83;;;10.70;1.00;;;;;;20822463;28;20033;-85
2023/05/23 22:01:42;;;;;;;7.68;1.73;;;10.70;1.00;;;;;;20796669;28;20040;-80
2023/05/23 22:11:43;;;;;;;7.40;2.05;;;10.50;1.00;;;;;;20803931;28;20531;-83
2023/05/23 22:21:44;;;;;;;6.78;2.05;;;10.40;1.00;;;;;;20810337;28;20040;-83
2023/05/23 22:31:46;;;;;;;12.02;2.50;;;10.30;1.00;;;;;;20806864;28;20055;-84
2023/05/23 22:41:48;;;;;;;5.05;1.45;;;10.30;1.00;;;;;;20823579;28;20143;-83
2023/05/23 22:51:50;;;;;;;11.90;2.55;;;10.20;1.00;;;;;;20835781;28;20033;-82
2023/05/23 23:01:52;;;;;;;7.38;2.85;;;10.10;1.00;;;;;;20827237;28;20048;-81
2023/05/23 23:11:53;;;;;;;7.20;1.92;;;10.00;1.00;;;;;;20824578;28;20412;-85
2023/05/23 23:21:54;;;;;;;4.10;1.63;;;9.90;1.00;;;;;;20811124;28;20052;-82
2023/05/23 23:31:58;;;;;;;7.75;1.90;;;9.70;1.00;;;;;;20827863;28;20040;-81
2023/05/23 23:41:59;;;;;;;5.57;1.67;;;9.60;1.00;;;;;;20817967;28;20063;-86
2023/05/23 23:52:00;;;;;;;4.72;1.63;;;9.50;1.00;;;;;;20837312;28;20048;-82
